sensor_id;sensor_type;location;lat;lon;timestamp;P1;durP1;ratioP1;P2;durP2;ratioP2
30462;SDS011;17256;43.618;25.336;2023-06-05T00:06:03;4.53;;;2.90;;
30462;SDS011;17256;43.618;25.336;2023-06-05T00:08:34;4.47;;;3.63;;
30462;SDS011;17256;43.618;25.336;2023-06-05T00:11:01;3.57;;;3.03;;
30462;SDS011;17256;43.618;25.336;2023-06-05T00:13:27;9.97;;;6.53;;
30462;SDS011;17256;43.618;25.336;2023-06-05T00:15:55;3.53;;;2.90;;
30462;SDS011;17256;43.618;25.336;2023-06-05T00:18:29;3.87;;;3.50;;
30462;SDS011;17256;43.618;25.336;2023-06-05T00:20:57;3.73;;;3.17;;
30462;SDS011;17256;43.618;25.336;2023-06-05T00:57:21;6.60;;;4.57;;
30462;SDS011;17256;43.618;25.336;2023-06-05T01:47:24;5.30;;;4.03;;
30462;SDS011;17256;43.618;25.336;2023-06-05T01:49:53;5.33;;;4.27;;
30462;SDS011;17256;43.618;25.336;2023-06-05T01:52:19;6.27;;;4.70;;
30462;SDS011;17256;43.618;25.336;2023-06-05T01:54:52;4.83;;;4.13;;
30462;SDS011;17256;43.618;25.336;2023-06-05T01:57:20;6.33;;;3.77;;
30462;SDS011;17256;43.618;25.336;2023-06-05T01:59:47;4.83;;;4.03;;
30462;SDS011;17256;43.618;25.336;2023-06-05T02:02:17;6.53;;;4.60;;
30462;SDS011;17256;43.618;25.336;2023-06-05T02:07:35;6.33;;;4.60;;
30462;SDS011;17256;43.618;25.336;2023-06-05T02:12:57;9.07;;;4.83;;
30462;SDS011;17256;43.618;25.336;2023-06-05T02:27:15;5.60;;;4.33;;
30462;SDS011;17256;43.618;25.336;2023-06-05T02:30:11;6.60;;;4.40;;
30462;SDS011;17256;43.618;25.336;2023-06-05T02:33:01;6.23;;;4.47;;
30462;SDS011;17256;43.618;25.336;2023-06-05T02:49:40;6.10;;;5.50;;
30462;SDS011;17256;43.618;25.336;2023-06-05T03:20:05;5.17;;;4.50;;
30462;SDS011;17256;43.618;25.336;2023-06-05T03:23:03;6.70;;;5.30;;
30462;SDS011;17256;43.618;25.336;2023-06-05T03:29:27;8.43;;;5.00;;
30462;SDS011;17256;43.618;25.336;2023-06-05T03:35:22;8.37;;;5.17;;
30462;SDS011;17256;43.618;25.336;2023-06-05T03:47:44;6.43;;;4.73;;
30462;SDS011;17256;43.618;25.336;2023-06-05T03:55:44;4.53;;;4.10;;
30462;SDS011;17256;43.618;25.336;2023-06-05T03:58:23;5.63;;;4.63;;
30462;SDS011;17256;43.618;25.336;2023-06-05T04:01:22;7.00;;;5.30;;
30462;SDS011;17256;43.618;25.336;2023-06-05T04:04:04;7.70;;;5.23;;
30462;SDS011;17256;43.618;25.336;2023-06-05T04:07:21;7.27;;;4.97;;
30462;SDS011;17256;43.618;25.336;2023-06-05T04:10:07;8.00;;;5.67;;
30462;SDS011;17256;43.618;25.336;2023-06-05T04:12:37;7.20;;;5.77;;
30462;SDS011;17256;43.618;25.336;2023-06-05T04:15:18;8.10;;;4.60;;
30462;SDS011;17256;43.618;25.336;2023-06-05T04:18:05;10.80;;;4.83;;
30462;SDS011;17256;43.618;25.336;2023-06-05T04:20:50;5.37;;;4.07;;
30462;SDS011;17256;43.618;25.336;2023-06-05T05:04:25;5.43;;;3.80;;
30462;SDS011;17256;43.618;25.336;2023-06-05T10:17:36;3.63;;;2.40;;
30462;SDS011;17256;43.618;25.336;2023-06-05T10:38:05;3.93;;;2.07;;
30462;SDS011;17256;43.618;25.336;2023-06-05T10:41:14;2.53;;;2.17;;
30462;SDS011;17256;43.618;25.336;2023-06-05T10:43:48;3.43;;;2.30;;
30462;SDS011;17256;43.618;25.336;2023-06-05T10:49:15;3.97;;;2.10;;
30462;SDS011;17256;43.618;25.336;2023-06-05T11:12:25;1.90;;;1.77;;
30462;SDS011;17256;43.618;25.336;2023-06-05T11:17:47;4.33;;;2.17;;
30462;SDS011;17256;43.618;25.336;2023-06-05T11:23:11;2.47;;;2.20;;
30462;SDS011;17256;43.618;25.336;2023-06-05T11:25:37;4.90;;;2.83;;
30462;SDS011;17256;43.618;25.336;2023-06-05T11:28:04;4.83;;;2.70;;
30462;SDS011;17256;43.618;25.336;2023-06-05T11:30:33;3.37;;;1.77;;
30462;SDS011;17256;43.618;25.336;2023-06-05T11:33:19;2.37;;;2.00;;
30462;SDS011;17256;43.618;25.336;2023-06-05T11:35:46;4.53;;;2.40;;
30462;SDS011;17256;43.618;25.336;2023-06-05T11:40:41;5.60;;;3.60;;
30462;SDS011;17256;43.618;25.336;2023-06-05T11:43:08;2.63;;;1.90;;
30462;SDS011;17256;43.618;25.336;2023-06-05T11:45:35;3.70;;;2.00;;
30462;SDS011;17256;43.618;25.336;2023-06-05T11:48:03;5.60;;;2.20;;
30462;SDS011;17256;43.618;25.336;2023-06-05T11:50:32;5.43;;;2.10;;
30462;SDS011;17256;43.618;25.336;2023-06-05T11:53:05;2.60;;;1.93;;
30462;SDS011;17256;43.618;25.336;2023-06-05T11:55:34;10.83;;;2.93;;
30462;SDS011;17256;43.618;25.336;2023-06-05T12:02:20;8.00;;;2.30;;
30462;SDS011;17256;43.618;25.336;2023-06-05T12:08:31;1.90;;;1.63;;
30462;SDS011;17256;43.618;25.336;2023-06-05T12:10:59;2.87;;;1.97;;
30462;SDS011;17256;43.618;25.336;2023-06-05T12:20:59;3.10;;;1.87;;
30462;SDS011;17256;43.618;25.336;2023-06-05T12:23:26;4.20;;;1.70;;
30462;SDS011;17256;43.618;25.336;2023-06-05T12:26:05;2.60;;;1.90;;
30462;SDS011;17256;43.618;25.336;2023-06-05T12:28:31;5.07;;;2.70;;
30462;SDS011;17256;43.618;25.336;2023-06-05T12:30:57;5.80;;;2.27;;
30462;SDS011;17256;43.618;25.336;2023-06-05T12:33:23;2.57;;;1.73;;
30462;SDS011;17256;43.618;25.336;2023-06-05T12:38:38;2.73;;;2.10;;
30462;SDS011;17256;43.618;25.336;2023-06-05T12:41:05;2.90;;;2.07;;
30462;SDS011;17256;43.618;25.336;2023-06-05T12:43:32;2.47;;;1.80;;
30462;SDS011;17256;43.618;25.336;2023-06-05T12:45:58;4.43;;;2.13;;
30462;SDS011;17256;43.618;25.336;2023-06-05T12:48:24;2.10;;;1.90;;
30462;SDS011;17256;43.618;25.336;2023-06-05T12:50:50;2.57;;;2.37;;
30462;SDS011;17256;43.618;25.336;2023-06-05T12:53:17;4.87;;;2.70;;
30462;SDS011;17256;43.618;25.336;2023-06-05T12:55:43;3.53;;;1.77;;
30462;SDS011;17256;43.618;25.336;2023-06-05T12:58:09;3.80;;;1.90;;
30462;SDS011;17256;43.618;25.336;2023-06-05T13:00:34;2.53;;;2.07;;
30462;SDS011;17256;43.618;25.336;2023-06-05T13:03:00;2.13;;;1.83;;
30462;SDS011;17256;43.618;25.336;2023-06-05T13:05:28;2.50;;;1.77;;
30462;SDS011;17256;43.618;25.336;2023-06-05T13:07:54;3.77;;;2.00;;
30462;SDS011;17256;43.618;25.336;2023-06-05T13:10:20;2.50;;;2.03;;
30462;SDS011;17256;43.618;25.336;2023-06-05T13:12:45;4.13;;;2.00;;
30462;SDS011;17256;43.618;25.336;2023-06-05T13:15:11;5.10;;;2.60;;
30462;SDS011;17256;43.618;25.336;2023-06-05T13:17:37;2.40;;;2.20;;
30462;SDS011;17256;43.618;25.336;2023-06-05T13:23:43;2.73;;;1.90;;
30462;SDS011;17256;43.618;25.336;2023-06-05T13:29:18;4.10;;;2.00;;
30462;SDS011;17256;43.618;25.336;2023-06-05T13:31:43;2.50;;;1.93;;
30462;SDS011;17256;43.618;25.336;2023-06-05T13:37:16;2.67;;;2.10;;
30462;SDS011;17256;43.618;25.336;2023-06-05T13:46:52;3.37;;;1.97;;
30462;SDS011;17256;43.618;25.336;2023-06-05T13:49:18;2.43;;;2.23;;
30462;SDS011;17256;43.618;25.336;2023-06-05T13:51:43;2.40;;;2.00;;
30462;SDS011;17256;43.618;25.336;2023-06-05T13:54:09;2.40;;;1.73;;
30462;SDS011;17256;43.618;25.336;2023-06-05T13:56:34;2.63;;;2.10;;
30462;SDS011;17256;43.618;25.336;2023-06-05T13:59:00;2.13;;;1.93;;
30462;SDS011;17256;43.618;25.336;2023-06-05T14:01:25;2.67;;;2.47;;
30462;SDS011;17256;43.618;25.336;2023-06-05T14:03:51;2.30;;;2.07;;
30462;SDS011;17256;43.618;25.336;2023-06-05T14:06:17;2.13;;;1.93;;
30462;SDS011;17256;43.618;25.336;2023-06-05T14:08:44;2.20;;;2.03;;
30462;SDS011;17256;43.618;25.336;2023-06-05T14:11:10;2.70;;;2.50;;
30462;SDS011;17256;43.618;25.336;2023-06-05T14:13:36;3.20;;;1.97;;
30462;SDS011;17256;43.618;25.336;2023-06-05T14:16:02;2.50;;;2.30;;
30462;SDS011;17256;43.618;25.336;2023-06-05T14:18:28;2.77;;;2.40;;
30462;SDS011;17256;43.618;25.336;2023-06-05T14:20:54;4.37;;;2.57;;
30462;SDS011;17256;43.618;25.336;2023-06-05T14:23:20;4.23;;;3.57;;
30462;SDS011;17256;43.618;25.336;2023-06-05T14:25:48;3.10;;;2.90;;
30462;SDS011;17256;43.618;25.336;2023-06-05T14:28:14;2.53;;;2.30;;
30462;SDS011;17256;43.618;25.336;2023-06-05T14:30:40;3.70;;;2.60;;
30462;SDS011;17256;43.618;25.336;2023-06-05T14:33:06;4.43;;;2.50;;
30462;SDS011;17256;43.618;25.336;2023-06-05T14:35:31;2.07;;;1.87;;
30462;SDS011;17256;43.618;25.336;2023-06-05T14:37:57;4.53;;;2.30;;
30462;SDS011;17256;43.618;25.336;2023-06-05T14:40:22;2.60;;;2.23;;
30462;SDS011;17256;43.618;25.336;2023-06-05T14:42:51;3.23;;;3.03;;
30462;SDS011;17256;43.618;25.336;2023-06-05T14:45:17;3.33;;;2.30;;
30462;SDS011;17256;43.618;25.336;2023-06-05T14:47:43;4.60;;;2.20;;
30462;SDS011;17256;43.618;25.336;2023-06-05T14:50:10;3.27;;;2.13;;
30462;SDS011;17256;43.618;25.336;2023-06-05T14:52:35;2.50;;;2.30;;
30462;SDS011;17256;43.618;25.336;2023-06-05T14:55:02;3.07;;;2.77;;
30462;SDS011;17256;43.618;25.336;2023-06-05T15:00:29;2.60;;;2.40;;
30462;SDS011;17256;43.618;25.336;2023-06-05T15:02:55;3.47;;;2.40;;
30462;SDS011;17256;43.618;25.336;2023-06-05T15:05:20;2.10;;;1.90;;
30462;SDS011;17256;43.618;25.336;2023-06-05T15:07:46;2.47;;;2.00;;
30462;SDS011;17256;43.618;25.336;2023-06-05T15:10:12;3.00;;;2.20;;
30462;SDS011;17256;43.618;25.336;2023-06-05T15:12:39;4.70;;;2.47;;
30462;SDS011;17256;43.618;25.336;2023-06-05T15:15:06;2.80;;;2.60;;
30462;SDS011;17256;43.618;25.336;2023-06-05T15:20:49;2.43;;;2.20;;
30462;SDS011;17256;43.618;25.336;2023-06-05T15:23:14;2.40;;;2.20;;
30462;SDS011;17256;43.618;25.336;2023-06-05T15:25:40;2.97;;;2.60;;
30462;SDS011;17256;43.618;25.336;2023-06-05T15:28:06;3.00;;;2.30;;
30462;SDS011;17256;43.618;25.336;2023-06-05T15:30:31;2.40;;;2.20;;
30462;SDS011;17256;43.618;25.336;2023-06-05T15:32:57;3.40;;;2.20;;
30462;SDS011;17256;43.618;25.336;2023-06-05T15:35:23;3.27;;;2.70;;
30462;SDS011;17256;43.618;25.336;2023-06-05T15:37:49;2.80;;;2.60;;
30462;SDS011;17256;43.618;25.336;2023-06-05T15:40:15;2.37;;;2.17;;
30462;SDS011;17256;43.618;25.336;2023-06-05T15:46:22;3.73;;;2.63;;
30462;SDS011;17256;43.618;25.336;2023-06-05T15:52:01;6.37;;;2.90;;
30462;SDS011;17256;43.618;25.336;2023-06-05T16:00:23;3.33;;;3.03;;
30462;SDS011;17256;43.618;25.336;2023-06-05T16:06:04;2.53;;;2.30;;
30462;SDS011;17256;43.618;25.336;2023-06-05T16:08:30;2.60;;;2.30;;
30462;SDS011;17256;43.618;25.336;2023-06-05T16:10:56;2.33;;;2.13;;
30462;SDS011;17256;43.618;25.336;2023-06-05T17:50:20;3.67;;;3.03;;
30462;SDS011;17256;43.618;25.336;2023-06-05T18:09:48;4.00;;;3.37;;
30462;SDS011;17256;43.618;25.336;2023-06-05T18:15:44;6.00;;;5.43;;
30462;SDS011;17256;43.618;25.336;2023-06-05T18:18:27;5.23;;;2.60;;
30462;SDS011;17256;43.618;25.336;2023-06-05T18:21:34;3.33;;;2.50;;
30462;SDS011;17256;43.618;25.336;2023-06-05T18:24:05;2.77;;;2.27;;
30462;SDS011;17256;43.618;25.336;2023-06-05T18:30:02;6.07;;;2.67;;
30462;SDS011;17256;43.618;25.336;2023-06-05T18:32:39;2.33;;;1.90;;
30462;SDS011;17256;43.618;25.336;2023-06-05T18:36:06;3.80;;;2.03;;
30462;SDS011;17256;43.618;25.336;2023-06-05T18:38:58;4.97;;;3.37;;
30462;SDS011;17256;43.618;25.336;2023-06-05T18:41:34;3.27;;;2.83;;
30462;SDS011;17256;43.618;25.336;2023-06-05T18:44:20;5.77;;;3.17;;
30462;SDS011;17256;43.618;25.336;2023-06-05T18:46:50;2.43;;;2.23;;
30462;SDS011;17256;43.618;25.336;2023-06-05T18:49:25;2.77;;;2.40;;
30462;SDS011;17256;43.618;25.336;2023-06-05T18:56:59;5.37;;;3.93;;
30462;SDS011;17256;43.618;25.336;2023-06-05T19:00:12;5.23;;;4.73;;
30462;SDS011;17256;43.618;25.336;2023-06-05T19:06:56;2.70;;;2.10;;
30462;SDS011;17256;43.618;25.336;2023-06-05T19:09:29;2.33;;;2.10;;
30462;SDS011;17256;43.618;25.336;2023-06-05T19:11:57;4.33;;;3.83;;
30462;SDS011;17256;43.618;25.336;2023-06-05T19:17:14;7.80;;;2.17;;
30462;SDS011;17256;43.618;25.336;2023-06-05T19:19:52;3.07;;;2.13;;
30462;SDS011;17256;43.618;25.336;2023-06-05T19:22:21;2.00;;;1.80;;
30462;SDS011;17256;43.618;25.336;2023-06-05T19:36:25;2.90;;;1.80;;
30462;SDS011;17256;43.618;25.336;2023-06-05T19:38:55;3.60;;;1.97;;
30462;SDS011;17256;43.618;25.336;2023-06-05T19:41:24;3.37;;;1.67;;
30462;SDS011;17256;43.618;25.336;2023-06-05T19:43:53;2.83;;;1.57;;
30462;SDS011;17256;43.618;25.336;2023-06-05T19:46:35;3.43;;;1.73;;
30462;SDS011;17256;43.618;25.336;2023-06-05T19:49:02;1.40;;;1.30;;
30462;SDS011;17256;43.618;25.336;2023-06-05T19:51:35;3.03;;;1.50;;
30462;SDS011;17256;43.618;25.336;2023-06-05T19:54:12;3.20;;;1.80;;
30462;SDS011;17256;43.618;25.336;2023-06-05T19:56:39;2.83;;;1.77;;
30462;SDS011;17256;43.618;25.336;2023-06-05T19:59:08;3.20;;;2.13;;
30462;SDS011;17256;43.618;25.336;2023-06-05T20:01:44;3.80;;;1.57;;
30462;SDS011;17256;43.618;25.336;2023-06-05T20:04:13;2.10;;;1.80;;
30462;SDS011;17256;43.618;25.336;2023-06-05T20:06:39;3.17;;;1.67;;
30462;SDS011;17256;43.618;25.336;2023-06-05T20:09:07;3.53;;;1.93;;
30462;SDS011;17256;43.618;25.336;2023-06-05T20:11:34;3.93;;;1.97;;
30462;SDS011;17256;43.618;25.336;2023-06-05T20:14:00;6.57;;;1.57;;
30462;SDS011;17256;43.618;25.336;2023-06-05T20:16:26;4.47;;;1.57;;
30462;SDS011;17256;43.618;25.336;2023-06-05T20:18:54;4.40;;;1.90;;
30462;SDS011;17256;43.618;25.336;2023-06-05T20:21:22;1.50;;;1.40;;
30462;SDS011;17256;43.618;25.336;2023-06-05T20:23:52;3.17;;;1.43;;
30462;SDS011;17256;43.618;25.336;2023-06-05T20:26:21;2.80;;;1.73;;
30462;SDS011;17256;43.618;25.336;2023-06-05T20:28:48;2.77;;;1.30;;
30462;SDS011;17256;43.618;25.336;2023-06-05T20:31:17;3.27;;;1.83;;
30462;SDS011;17256;43.618;25.336;2023-06-05T20:34:07;2.67;;;1.70;;
30462;SDS011;17256;43.618;25.336;2023-06-05T20:37:46;2.33;;;1.40;;
30462;SDS011;17256;43.618;25.336;2023-06-05T20:40:14;3.37;;;1.80;;
30462;SDS011;17256;43.618;25.336;2023-06-05T20:42:41;2.80;;;2.20;;
30462;SDS011;17256;43.618;25.336;2023-06-05T20:45:17;4.37;;;1.37;;
30462;SDS011;17256;43.618;25.336;2023-06-05T20:48:02;2.33;;;1.40;;
30462;SDS011;17256;43.618;25.336;2023-06-05T20:51:08;3.90;;;1.30;;
30462;SDS011;17256;43.618;25.336;2023-06-05T20:53:44;1.90;;;1.10;;
30462;SDS011;17256;43.618;25.336;2023-06-05T20:56:25;6.80;;;1.90;;
30462;SDS011;17256;43.618;25.336;2023-06-05T20:58:58;2.77;;;1.20;;
30462;SDS011;17256;43.618;25.336;2023-06-05T21:01:32;2.20;;;1.27;;
30462;SDS011;17256;43.618;25.336;2023-06-05T21:04:26;4.13;;;1.73;;
30462;SDS011;17256;43.618;25.336;2023-06-05T21:07:02;1.73;;;1.20;;
30462;SDS011;17256;43.618;25.336;2023-06-05T21:09:50;6.37;;;1.37;;
30462;SDS011;17256;43.618;25.336;2023-06-05T21:12:22;3.30;;;1.20;;
30462;SDS011;17256;43.618;25.336;2023-06-05T21:14:51;3.17;;;1.03;;
30462;SDS011;17256;43.618;25.336;2023-06-05T21:17:27;3.43;;;1.30;;
30462;SDS011;17256;43.618;25.336;2023-06-05T21:19:54;1.60;;;1.00;;
30462;SDS011;17256;43.618;25.336;2023-06-05T21:22:21;4.47;;;1.57;;
30462;SDS011;17256;43.618;25.336;2023-06-05T21:25:01;3.23;;;1.90;;
30462;SDS011;17256;43.618;25.336;2023-06-05T21:27:40;3.80;;;1.73;;
30462;SDS011;17256;43.618;25.336;2023-06-05T21:31:04;1.50;;;1.40;;
30462;SDS011;17256;43.618;25.336;2023-06-05T21:33:57;2.77;;;1.43;;
30462;SDS011;17256;43.618;25.336;2023-06-05T21:36:30;2.83;;;1.23;;
30462;SDS011;17256;43.618;25.336;2023-06-05T21:38:58;2.97;;;1.77;;
30462;SDS011;17256;43.618;25.336;2023-06-05T21:41:28;3.77;;;0.83;;
30462;SDS011;17256;43.618;25.336;2023-06-05T21:44:25;3.17;;;1.20;;
30462;SDS011;17256;43.618;25.336;2023-06-05T21:47:17;4.87;;;1.40;;
30462;SDS011;17256;43.618;25.336;2023-06-05T21:52:59;2.13;;;1.13;;
30462;SDS011;17256;43.618;25.336;2023-06-05T21:56:24;2.20;;;1.00;;
30462;SDS011;17256;43.618;25.336;2023-06-05T21:59:41;0.87;;;0.83;;
30462;SDS011;17256;43.618;25.336;2023-06-05T22:02:27;2.07;;;1.13;;
30462;SDS011;17256;43.618;25.336;2023-06-05T22:05:32;4.63;;;1.30;;
30462;SDS011;17256;43.618;25.336;2023-06-05T22:08:24;2.73;;;1.83;;
30462;SDS011;17256;43.618;25.336;2023-06-05T22:11:07;1.83;;;1.13;;
30462;SDS011;17256;43.618;25.336;2023-06-05T22:14:06;4.30;;;1.37;;
30462;SDS011;17256;43.618;25.336;2023-06-05T22:16:37;3.60;;;1.10;;
30462;SDS011;17256;43.618;25.336;2023-06-05T22:19:18;4.17;;;1.57;;
30462;SDS011;17256;43.618;25.336;2023-06-05T22:21:53;4.27;;;1.10;;
30462;SDS011;17256;43.618;25.336;2023-06-05T22:24:58;1.90;;;1.70;;
30462;SDS011;17256;43.618;25.336;2023-06-05T22:27:58;4.10;;;1.43;;
30462;SDS011;17256;43.618;25.336;2023-06-05T22:30:45;4.47;;;1.90;;
30462;SDS011;17256;43.618;25.336;2023-06-05T22:33:25;3.53;;;1.70;;
30462;SDS011;17256;43.618;25.336;2023-06-05T22:36:58;4.03;;;1.43;;
30462;SDS011;17256;43.618;25.336;2023-06-05T22:40:00;2.47;;;1.40;;
30462;SDS011;17256;43.618;25.336;2023-06-05T22:42:48;2.60;;;1.33;;
30462;SDS011;17256;43.618;25.336;2023-06-05T22:45:29;2.27;;;1.47;;
30462;SDS011;17256;43.618;25.336;2023-06-05T22:49:01;1.80;;;1.20;;
30462;SDS011;17256;43.618;25.336;2023-06-05T22:51:50;2.63;;;1.30;;
30462;SDS011;17256;43.618;25.336;2023-06-05T22:54:50;3.77;;;1.33;;
30462;SDS011;17256;43.618;25.336;2023-06-05T22:58:17;1.17;;;1.07;;
30462;SDS011;17256;43.618;25.336;2023-06-05T23:00:46;2.73;;;1.27;;
30462;SDS011;17256;43.618;25.336;2023-06-05T23:03:25;2.10;;;1.23;;
30462;SDS011;17256;43.618;25.336;2023-06-05T23:06:30;3.03;;;1.37;;
30462;SDS011;17256;43.618;25.336;2023-06-05T23:08:59;1.27;;;1.00;;
30462;SDS011;17256;43.618;25.336;2023-06-05T23:12:08;1.70;;;1.20;;
30462;SDS011;17256;43.618;25.336;2023-06-05T23:15:21;2.63;;;1.50;;
30462;SDS011;17256;43.618;25.336;2023-06-05T23:18:48;1.97;;;1.40;;
30462;SDS011;17256;43.618;25.336;2023-06-05T23:21:43;1.80;;;1.10;;
30462;SDS011;17256;43.618;25.336;2023-06-05T23:28:09;2.33;;;1.17;;
30462;SDS011;17256;43.618;25.336;2023-06-05T23:31:07;3.30;;;1.37;;
30462;SDS011;17256;43.618;25.336;2023-06-05T23:33:53;2.30;;;1.20;;
30462;SDS011;17256;43.618;25.336;2023-06-05T23:36:38;2.50;;;1.17;;
30462;SDS011;17256;43.618;25.336;2023-06-05T23:40:08;2.40;;;1.03;;
30462;SDS011;17256;43.618;25.336;2023-06-05T23:42:50;1.50;;;1.20;;
30462;SDS011;17256;43.618;25.336;2023-06-05T23:45:50;2.07;;;1.03;;
30462;SDS011;17256;43.618;25.336;2023-06-05T23:48:21;1.70;;;1.10;;
30462;SDS011;17256;43.618;25.336;2023-06-05T23:51:17;1.63;;;1.10;;
30462;SDS011;17256;43.618;25.336;2023-06-05T23:54:08;1.43;;;1.20;;
30462;SDS011;17256;43.618;25.336;2023-06-05T23:57:40;0.87;;;0.87;;
